sensor_id;sensor_type;location;lat;lon;timestamp;P1;durP1;ratioP1;P2;durP2;ratioP2
19543;SDS011;9917;51.256;7.152;2023-02-22T00:01:02;33.90;;;15.30;;
19543;SDS011;9917;51.256;7.152;2023-02-22T00:03:30;33.07;;;14.40;;
19543;SDS011;9917;51.256;7.152;2023-02-22T00:05:56;31.57;;;14.60;;
19543;SDS011;9917;51.256;7.152;2023-02-22T00:08:25;34.23;;;14.87;;
19543;SDS011;9917;51.256;7.152;2023-02-22T00:10:52;29.40;;;14.33;;
19543;SDS011;9917;51.256;7.152;2023-02-22T00:13:18;28.87;;;13.60;;
19543;SDS011;9917;51.256;7.152;2023-02-22T00:15:44;30.63;;;13.63;;
19543;SDS011;9917;51.256;7.152;2023-02-22T00:18:11;28.37;;;13.57;;
19543;SDS011;9917;51.256;7.152;2023-02-22T00:20:39;29.70;;;13.63;;
19543;SDS011;9917;51.256;7.152;2023-02-22T00:23:05;30.27;;;13.27;;
19543;SDS011;9917;51.256;7.152;2023-02-22T00:25:32;29.43;;;13.50;;
19543;SDS011;9917;51.256;7.152;2023-02-22T00:27:59;30.30;;;12.97;;
19543;SDS011;9917;51.256;7.152;2023-02-22T00:30:26;29.63;;;13.30;;
19543;SDS011;9917;51.256;7.152;2023-02-22T00:32:53;30.77;;;13.67;;
19543;SDS011;9917;51.256;7.152;2023-02-22T00:35:21;29.07;;;13.13;;
19543;SDS011;9917;51.256;7.152;2023-02-22T00:38:02;30.13;;;13.57;;
19543;SDS011;9917;51.256;7.152;2023-02-22T00:40:29;29.57;;;13.83;;
19543;SDS011;9917;51.256;7.152;2023-02-22T00:42:56;28.67;;;13.27;;
19543;SDS011;9917;51.256;7.152;2023-02-22T00:45:23;28.03;;;12.60;;
19543;SDS011;9917;51.256;7.152;2023-02-22T00:47:51;28.47;;;12.87;;
19543;SDS011;9917;51.256;7.152;2023-02-22T00:50:17;28.67;;;13.00;;
19543;SDS011;9917;51.256;7.152;2023-02-22T00:52:43;32.60;;;13.63;;
19543;SDS011;9917;51.256;7.152;2023-02-22T00:55:15;28.50;;;12.63;;
19543;SDS011;9917;51.256;7.152;2023-02-22T00:57:42;24.97;;;11.70;;
19543;SDS011;9917;51.256;7.152;2023-02-22T01:00:13;33.13;;;13.70;;
19543;SDS011;9917;51.256;7.152;2023-02-22T01:02:41;26.37;;;12.33;;
19543;SDS011;9917;51.256;7.152;2023-02-22T01:05:09;28.97;;;12.97;;
19543;SDS011;9917;51.256;7.152;2023-02-22T01:07:36;31.80;;;13.83;;
19543;SDS011;9917;51.256;7.152;2023-02-22T01:10:03;30.83;;;13.63;;
19543;SDS011;9917;51.256;7.152;2023-02-22T01:12:31;30.53;;;12.40;;
19543;SDS011;9917;51.256;7.152;2023-02-22T01:14:56;31.47;;;13.10;;
19543;SDS011;9917;51.256;7.152;2023-02-22T01:17:22;30.63;;;13.40;;
19543;SDS011;9917;51.256;7.152;2023-02-22T01:19:48;32.50;;;13.00;;
19543;SDS011;9917;51.256;7.152;2023-02-22T01:22:14;31.53;;;13.17;;
19543;SDS011;9917;51.256;7.152;2023-02-22T01:24:40;25.17;;;12.57;;
19543;SDS011;9917;51.256;7.152;2023-02-22T01:27:06;27.07;;;13.17;;
19543;SDS011;9917;51.256;7.152;2023-02-22T01:29:34;26.77;;;12.67;;
19543;SDS011;9917;51.256;7.152;2023-02-22T01:31:59;26.50;;;12.40;;
19543;SDS011;9917;51.256;7.152;2023-02-22T01:34:25;28.33;;;12.63;;
19543;SDS011;9917;51.256;7.152;2023-02-22T01:36:51;25.87;;;12.20;;
19543;SDS011;9917;51.256;7.152;2023-02-22T01:39:17;27.33;;;12.37;;
19543;SDS011;9917;51.256;7.152;2023-02-22T01:41:43;22.77;;;12.00;;
19543;SDS011;9917;51.256;7.152;2023-02-22T01:44:16;25.63;;;12.17;;
19543;SDS011;9917;51.256;7.152;2023-02-22T01:46:46;24.07;;;11.57;;
19543;SDS011;9917;51.256;7.152;2023-02-22T01:49:11;27.00;;;12.07;;
19543;SDS011;9917;51.256;7.152;2023-02-22T01:51:39;27.33;;;12.90;;
19543;SDS011;9917;51.256;7.152;2023-02-22T01:54:08;23.90;;;11.63;;
19543;SDS011;9917;51.256;7.152;2023-02-22T01:56:37;22.47;;;10.60;;
19543;SDS011;9917;51.256;7.152;2023-02-22T01:59:06;23.03;;;11.23;;
19543;SDS011;9917;51.256;7.152;2023-02-22T02:01:34;27.27;;;12.53;;
19543;SDS011;9917;51.256;7.152;2023-02-22T02:04:04;22.07;;;10.97;;
19543;SDS011;9917;51.256;7.152;2023-02-22T02:06:32;23.63;;;10.90;;
19543;SDS011;9917;51.256;7.152;2023-02-22T02:09:02;22.63;;;11.20;;
19543;SDS011;9917;51.256;7.152;2023-02-22T02:11:33;25.00;;;10.77;;
19543;SDS011;9917;51.256;7.152;2023-02-22T02:13:59;23.00;;;10.93;;
19543;SDS011;9917;51.256;7.152;2023-02-22T02:16:26;22.30;;;11.17;;
19543;SDS011;9917;51.256;7.152;2023-02-22T02:18:58;24.23;;;11.23;;
19543;SDS011;9917;51.256;7.152;2023-02-22T02:21:36;21.57;;;11.37;;
19543;SDS011;9917;51.256;7.152;2023-02-22T02:27:15;21.73;;;10.60;;
19543;SDS011;9917;51.256;7.152;2023-02-22T02:29:56;20.13;;;10.57;;
19543;SDS011;9917;51.256;7.152;2023-02-22T02:32:59;24.00;;;11.10;;
19543;SDS011;9917;51.256;7.152;2023-02-22T02:35:38;17.97;;;8.97;;
19543;SDS011;9917;51.256;7.152;2023-02-22T02:38:15;23.27;;;10.57;;
19543;SDS011;9917;51.256;7.152;2023-02-22T02:40:54;18.10;;;9.73;;
19543;SDS011;9917;51.256;7.152;2023-02-22T02:43:30;18.00;;;9.90;;
19543;SDS011;9917;51.256;7.152;2023-02-22T02:46:01;21.53;;;10.40;;
19543;SDS011;9917;51.256;7.152;2023-02-22T02:48:33;24.10;;;11.27;;
19543;SDS011;9917;51.256;7.152;2023-02-22T02:51:00;21.57;;;10.13;;
19543;SDS011;9917;51.256;7.152;2023-02-22T02:53:30;22.23;;;10.27;;
19543;SDS011;9917;51.256;7.152;2023-02-22T02:55:58;21.03;;;10.73;;
19543;SDS011;9917;51.256;7.152;2023-02-22T02:58:24;23.50;;;10.53;;
19543;SDS011;9917;51.256;7.152;2023-02-22T03:00:51;21.97;;;10.27;;
19543;SDS011;9917;51.256;7.152;2023-02-22T03:03:29;19.17;;;9.60;;
19543;SDS011;9917;51.256;7.152;2023-02-22T03:06:13;24.37;;;10.03;;
19543;SDS011;9917;51.256;7.152;2023-02-22T03:08:57;21.67;;;10.13;;
19543;SDS011;9917;51.256;7.152;2023-02-22T03:11:29;22.00;;;10.57;;
19543;SDS011;9917;51.256;7.152;2023-02-22T03:14:02;24.73;;;10.33;;
19543;SDS011;9917;51.256;7.152;2023-02-22T03:16:37;17.43;;;9.23;;
19543;SDS011;9917;51.256;7.152;2023-02-22T03:19:11;24.13;;;10.97;;
19543;SDS011;9917;51.256;7.152;2023-02-22T03:21:44;19.57;;;9.70;;
19543;SDS011;9917;51.256;7.152;2023-02-22T03:24:14;22.40;;;10.40;;
19543;SDS011;9917;51.256;7.152;2023-02-22T03:26:44;19.10;;;9.53;;
19543;SDS011;9917;51.256;7.152;2023-02-22T03:29:13;19.70;;;10.17;;
19543;SDS011;9917;51.256;7.152;2023-02-22T03:31:43;18.53;;;10.07;;
19543;SDS011;9917;51.256;7.152;2023-02-22T03:34:17;18.83;;;10.07;;
19543;SDS011;9917;51.256;7.152;2023-02-22T03:36:46;19.67;;;10.90;;
19543;SDS011;9917;51.256;7.152;2023-02-22T03:39:15;17.50;;;9.07;;
19543;SDS011;9917;51.256;7.152;2023-02-22T03:41:44;20.63;;;9.80;;
19543;SDS011;9917;51.256;7.152;2023-02-22T03:44:13;18.93;;;9.57;;
19543;SDS011;9917;51.256;7.152;2023-02-22T03:46:41;17.47;;;9.10;;
19543;SDS011;9917;51.256;7.152;2023-02-22T03:49:10;14.67;;;8.37;;
19543;SDS011;9917;51.256;7.152;2023-02-22T03:51:43;13.50;;;7.97;;
19543;SDS011;9917;51.256;7.152;2023-02-22T03:54:08;15.37;;;8.47;;
19543;SDS011;9917;51.256;7.152;2023-02-22T03:56:36;16.33;;;8.40;;
19543;SDS011;9917;51.256;7.152;2023-02-22T03:59:08;19.00;;;9.50;;
19543;SDS011;9917;51.256;7.152;2023-02-22T04:01:35;17.00;;;7.87;;
19543;SDS011;9917;51.256;7.152;2023-02-22T04:04:01;16.13;;;8.53;;
19543;SDS011;9917;51.256;7.152;2023-02-22T04:06:27;16.53;;;8.60;;
19543;SDS011;9917;51.256;7.152;2023-02-22T04:08:55;15.17;;;7.67;;
19543;SDS011;9917;51.256;7.152;2023-02-22T04:11:21;21.10;;;8.13;;
19543;SDS011;9917;51.256;7.152;2023-02-22T04:13:47;18.20;;;8.63;;
19543;SDS011;9917;51.256;7.152;2023-02-22T04:16:13;19.10;;;8.63;;
19543;SDS011;9917;51.256;7.152;2023-02-22T04:18:39;19.20;;;9.03;;
19543;SDS011;9917;51.256;7.152;2023-02-22T04:21:05;19.37;;;9.33;;
19543;SDS011;9917;51.256;7.152;2023-02-22T04:23:31;19.20;;;8.83;;
19543;SDS011;9917;51.256;7.152;2023-02-22T04:25:58;17.97;;;8.87;;
19543;SDS011;9917;51.256;7.152;2023-02-22T04:28:24;17.60;;;9.57;;
19543;SDS011;9917;51.256;7.152;2023-02-22T04:30:50;17.50;;;9.10;;
19543;SDS011;9917;51.256;7.152;2023-02-22T04:33:15;19.57;;;9.43;;
19543;SDS011;9917;51.256;7.152;2023-02-22T04:35:41;18.33;;;8.93;;
19543;SDS011;9917;51.256;7.152;2023-02-22T04:38:07;18.40;;;9.37;;
19543;SDS011;9917;51.256;7.152;2023-02-22T04:40:33;20.00;;;9.40;;
19543;SDS011;9917;51.256;7.152;2023-02-22T04:43:01;19.20;;;9.67;;
19543;SDS011;9917;51.256;7.152;2023-02-22T04:45:27;19.23;;;9.40;;
19543;SDS011;9917;51.256;7.152;2023-02-22T04:47:53;18.33;;;8.80;;
19543;SDS011;9917;51.256;7.152;2023-02-22T04:50:19;20.80;;;9.57;;
19543;SDS011;9917;51.256;7.152;2023-02-22T04:52:45;18.47;;;8.60;;
19543;SDS011;9917;51.256;7.152;2023-02-22T04:55:11;17.37;;;9.37;;
19543;SDS011;9917;51.256;7.152;2023-02-22T04:57:36;19.63;;;9.50;;
19543;SDS011;9917;51.256;7.152;2023-02-22T05:00:04;20.17;;;9.10;;
19543;SDS011;9917;51.256;7.152;2023-02-22T05:02:31;19.97;;;9.47;;
19543;SDS011;9917;51.256;7.152;2023-02-22T05:04:57;19.23;;;9.13;;
19543;SDS011;9917;51.256;7.152;2023-02-22T05:07:23;19.43;;;9.67;;
19543;SDS011;9917;51.256;7.152;2023-02-22T05:09:49;20.23;;;9.20;;
19543;SDS011;9917;51.256;7.152;2023-02-22T05:12:15;21.60;;;9.70;;
19543;SDS011;9917;51.256;7.152;2023-02-22T05:14:41;20.03;;;9.10;;
19543;SDS011;9917;51.256;7.152;2023-02-22T05:17:08;18.97;;;9.00;;
19543;SDS011;9917;51.256;7.152;2023-02-22T05:19:34;18.30;;;9.20;;
19543;SDS011;9917;51.256;7.152;2023-02-22T05:22:00;22.93;;;10.60;;
19543;SDS011;9917;51.256;7.152;2023-02-22T05:24:26;20.33;;;9.30;;
19543;SDS011;9917;51.256;7.152;2023-02-22T05:26:52;25.43;;;10.03;;
19543;SDS011;9917;51.256;7.152;2023-02-22T05:29:18;23.30;;;9.53;;
19543;SDS011;9917;51.256;7.152;2023-02-22T05:31:44;19.03;;;10.13;;
19543;SDS011;9917;51.256;7.152;2023-02-22T05:34:11;20.33;;;10.13;;
19543;SDS011;9917;51.256;7.152;2023-02-22T05:36:37;20.70;;;9.33;;
19543;SDS011;9917;51.256;7.152;2023-02-22T05:39:03;17.53;;;9.80;;
19543;SDS011;9917;51.256;7.152;2023-02-22T05:41:29;19.63;;;9.83;;
19543;SDS011;9917;51.256;7.152;2023-02-22T05:43:55;23.53;;;11.17;;
19543;SDS011;9917;51.256;7.152;2023-02-22T05:46:21;22.90;;;10.20;;
19543;SDS011;9917;51.256;7.152;2023-02-22T05:48:46;21.23;;;9.97;;
19543;SDS011;9917;51.256;7.152;2023-02-22T05:51:15;21.03;;;10.57;;
19543;SDS011;9917;51.256;7.152;2023-02-22T05:53:40;23.40;;;10.80;;
19543;SDS011;9917;51.256;7.152;2023-02-22T05:56:07;23.80;;;10.77;;
19543;SDS011;9917;51.256;7.152;2023-02-22T05:58:32;21.57;;;9.97;;
19543;SDS011;9917;51.256;7.152;2023-02-22T06:00:58;18.77;;;9.27;;
19543;SDS011;9917;51.256;7.152;2023-02-22T06:03:24;20.53;;;10.23;;
19543;SDS011;9917;51.256;7.152;2023-02-22T06:05:50;19.67;;;9.77;;
19543;SDS011;9917;51.256;7.152;2023-02-22T06:08:17;18.43;;;9.93;;
19543;SDS011;9917;51.256;7.152;2023-02-22T06:10:43;18.40;;;10.40;;
19543;SDS011;9917;51.256;7.152;2023-02-22T06:13:09;20.87;;;9.73;;
19543;SDS011;9917;51.256;7.152;2023-02-22T06:15:35;21.13;;;10.40;;
19543;SDS011;9917;51.256;7.152;2023-02-22T06:18:01;20.43;;;9.73;;
19543;SDS011;9917;51.256;7.152;2023-02-22T06:20:28;18.57;;;9.93;;
19543;SDS011;9917;51.256;7.152;2023-02-22T06:22:56;20.73;;;10.77;;
19543;SDS011;9917;51.256;7.152;2023-02-22T06:25:24;22.90;;;10.87;;
19543;SDS011;9917;51.256;7.152;2023-02-22T06:27:50;23.80;;;11.17;;
19543;SDS011;9917;51.256;7.152;2023-02-22T06:30:17;21.67;;;10.50;;
19543;SDS011;9917;51.256;7.152;2023-02-22T06:32:44;20.67;;;10.70;;
19543;SDS011;9917;51.256;7.152;2023-02-22T06:35:10;22.50;;;10.10;;
19543;SDS011;9917;51.256;7.152;2023-02-22T06:37:36;20.90;;;10.10;;
19543;SDS011;9917;51.256;7.152;2023-02-22T06:40:02;18.30;;;10.13;;
19543;SDS011;9917;51.256;7.152;2023-02-22T06:42:29;16.83;;;9.37;;
19543;SDS011;9917;51.256;7.152;2023-02-22T06:44:55;20.23;;;10.67;;
19543;SDS011;9917;51.256;7.152;2023-02-22T06:47:21;18.30;;;10.20;;
19543;SDS011;9917;51.256;7.152;2023-02-22T06:49:51;16.80;;;9.33;;
19543;SDS011;9917;51.256;7.152;2023-02-22T06:52:40;18.80;;;10.23;;
19543;SDS011;9917;51.256;7.152;2023-02-22T06:55:06;17.63;;;9.27;;
19543;SDS011;9917;51.256;7.152;2023-02-22T06:57:34;19.40;;;10.77;;
19543;SDS011;9917;51.256;7.152;2023-02-22T06:59:59;24.07;;;11.20;;
19543;SDS011;9917;51.256;7.152;2023-02-22T07:02:25;19.27;;;10.33;;
19543;SDS011;9917;51.256;7.152;2023-02-22T07:04:51;21.93;;;11.07;;
19543;SDS011;9917;51.256;7.152;2023-02-22T07:07:17;19.43;;;10.13;;
19543;SDS011;9917;51.256;7.152;2023-02-22T07:09:46;16.37;;;9.37;;
19543;SDS011;9917;51.256;7.152;2023-02-22T07:12:12;20.90;;;10.40;;
19543;SDS011;9917;51.256;7.152;2023-02-22T07:14:39;21.50;;;11.10;;
19543;SDS011;9917;51.256;7.152;2023-02-22T07:17:05;32.80;;;13.10;;
19543;SDS011;9917;51.256;7.152;2023-02-22T07:19:31;23.73;;;11.30;;
19543;SDS011;9917;51.256;7.152;2023-02-22T07:21:57;18.93;;;10.07;;
19543;SDS011;9917;51.256;7.152;2023-02-22T07:24:23;37.67;;;13.63;;
19543;SDS011;9917;51.256;7.152;2023-02-22T07:26:49;23.30;;;10.97;;
19543;SDS011;9917;51.256;7.152;2023-02-22T07:29:15;24.60;;;11.67;;
19543;SDS011;9917;51.256;7.152;2023-02-22T07:31:43;21.70;;;11.00;;
19543;SDS011;9917;51.256;7.152;2023-02-22T07:34:08;26.10;;;10.73;;
19543;SDS011;9917;51.256;7.152;2023-02-22T07:36:34;21.17;;;10.80;;
19543;SDS011;9917;51.256;7.152;2023-02-22T07:39:00;20.00;;;10.37;;
19543;SDS011;9917;51.256;7.152;2023-02-22T07:41:26;22.40;;;10.83;;
19543;SDS011;9917;51.256;7.152;2023-02-22T07:43:52;19.60;;;10.77;;
19543;SDS011;9917;51.256;7.152;2023-02-22T07:46:17;24.07;;;11.13;;
19543;SDS011;9917;51.256;7.152;2023-02-22T07:48:45;22.10;;;10.93;;
19543;SDS011;9917;51.256;7.152;2023-02-22T07:51:13;20.77;;;10.77;;
19543;SDS011;9917;51.256;7.152;2023-02-22T07:53:39;27.67;;;11.47;;
19543;SDS011;9917;51.256;7.152;2023-02-22T07:56:05;21.30;;;10.60;;
19543;SDS011;9917;51.256;7.152;2023-02-22T07:58:31;21.07;;;11.13;;
19543;SDS011;9917;51.256;7.152;2023-02-22T08:00:57;22.67;;;10.83;;
19543;SDS011;9917;51.256;7.152;2023-02-22T08:03:24;20.20;;;10.67;;
19543;SDS011;9917;51.256;7.152;2023-02-22T08:05:53;21.07;;;11.00;;
19543;SDS011;9917;51.256;7.152;2023-02-22T08:08:19;19.73;;;9.80;;
19543;SDS011;9917;51.256;7.152;2023-02-22T08:10:46;21.67;;;10.47;;
19543;SDS011;9917;51.256;7.152;2023-02-22T08:13:12;25.05;;;10.60;;
19543;SDS011;9917;51.256;7.152;2023-02-22T08:15:39;22.10;;;10.23;;
19543;SDS011;9917;51.256;7.152;2023-02-22T08:18:09;22.60;;;11.20;;
19543;SDS011;9917;51.256;7.152;2023-02-22T08:20:36;20.58;;;11.23;;
19543;SDS011;9917;51.256;7.152;2023-02-22T08:23:04;25.20;;;11.90;;
19543;SDS011;9917;51.256;7.152;2023-02-22T08:25:31;27.17;;;11.70;;
19543;SDS011;9917;51.256;7.152;2023-02-22T08:27:58;25.13;;;10.43;;
19543;SDS011;9917;51.256;7.152;2023-02-22T08:30:24;22.65;;;11.57;;
19543;SDS011;9917;51.256;7.152;2023-02-22T08:32:51;22.38;;;10.55;;
19543;SDS011;9917;51.256;7.152;2023-02-22T08:35:17;23.58;;;10.57;;
19543;SDS011;9917;51.256;7.152;2023-02-22T08:37:45;20.48;;;11.05;;
19543;SDS011;9917;51.256;7.152;2023-02-22T08:40:14;23.88;;;11.60;;
19543;SDS011;9917;51.256;7.152;2023-02-22T08:42:40;20.00;;;11.38;;
19543;SDS011;9917;51.256;7.152;2023-02-22T08:45:07;25.02;;;12.10;;
19543;SDS011;9917;51.256;7.152;2023-02-22T08:47:33;25.75;;;11.32;;
19543;SDS011;9917;51.256;7.152;2023-02-22T08:49:59;21.95;;;11.88;;
19543;SDS011;9917;51.256;7.152;2023-02-22T08:52:25;21.02;;;12.70;;
19543;SDS011;9917;51.256;7.152;2023-02-22T08:54:51;22.65;;;12.52;;
19543;SDS011;9917;51.256;7.152;2023-02-22T08:57:18;24.48;;;13.15;;
19543;SDS011;9917;51.256;7.152;2023-02-22T08:59:44;23.70;;;14.45;;
19543;SDS011;9917;51.256;7.152;2023-02-22T09:02:12;27.08;;;13.50;;
19543;SDS011;9917;51.256;7.152;2023-02-22T09:04:39;26.50;;;12.98;;
19543;SDS011;9917;51.256;7.152;2023-02-22T09:07:05;26.52;;;12.95;;
19543;SDS011;9917;51.256;7.152;2023-02-22T09:09:31;27.52;;;15.55;;
19543;SDS011;9917;51.256;7.152;2023-02-22T09:12:03;25.40;;;13.73;;
19543;SDS011;9917;51.256;7.152;2023-02-22T09:14:31;25.63;;;13.55;;
19543;SDS011;9917;51.256;7.152;2023-02-22T09:16:56;22.95;;;12.70;;
19543;SDS011;9917;51.256;7.152;2023-02-22T09:19:22;24.20;;;13.55;;
19543;SDS011;9917;51.256;7.152;2023-02-22T09:21:51;21.90;;;12.50;;
19543;SDS011;9917;51.256;7.152;2023-02-22T09:24:17;22.67;;;12.38;;
19543;SDS011;9917;51.256;7.152;2023-02-22T09:26:45;23.67;;;12.90;;
19543;SDS011;9917;51.256;7.152;2023-02-22T09:29:11;25.13;;;12.65;;
19543;SDS011;9917;51.256;7.152;2023-02-22T09:31:39;23.38;;;12.98;;
19543;SDS011;9917;51.256;7.152;2023-02-22T09:34:05;24.67;;;13.32;;
19543;SDS011;9917;51.256;7.152;2023-02-22T09:36:32;24.50;;;13.38;;
19543;SDS011;9917;51.256;7.152;2023-02-22T09:38:58;23.85;;;12.30;;
19543;SDS011;9917;51.256;7.152;2023-02-22T09:41:24;21.35;;;12.65;;
19543;SDS011;9917;51.256;7.152;2023-02-22T09:43:52;22.08;;;12.43;;
19543;SDS011;9917;51.256;7.152;2023-02-22T09:46:28;18.55;;;10.85;;
19543;SDS011;9917;51.256;7.152;2023-02-22T09:49:00;19.30;;;9.60;;
19543;SDS011;9917;51.256;7.152;2023-02-22T09:51:29;20.77;;;11.25;;
19543;SDS011;9917;51.256;7.152;2023-02-22T09:53:58;35.42;;;20.30;;
19543;SDS011;9917;51.256;7.152;2023-02-22T09:56:26;19.45;;;10.82;;
19543;SDS011;9917;51.256;7.152;2023-02-22T09:58:54;22.40;;;10.93;;
19543;SDS011;9917;51.256;7.152;2023-02-22T10:01:22;19.95;;;10.15;;
19543;SDS011;9917;51.256;7.152;2023-02-22T10:03:54;17.20;;;9.25;;
19543;SDS011;9917;51.256;7.152;2023-02-22T10:06:27;20.42;;;8.90;;
19543;SDS011;9917;51.256;7.152;2023-02-22T10:08:54;15.73;;;8.52;;
19543;SDS011;9917;51.256;7.152;2023-02-22T10:11:27;16.80;;;8.68;;
19543;SDS011;9917;51.256;7.152;2023-02-22T10:14:01;14.43;;;6.97;;
19543;SDS011;9917;51.256;7.152;2023-02-22T10:16:40;17.58;;;7.22;;
19543;SDS011;9917;51.256;7.152;2023-02-22T10:19:15;14.57;;;7.68;;
19543;SDS011;9917;51.256;7.152;2023-02-22T10:22:08;10.35;;;5.55;;
19543;SDS011;9917;51.256;7.152;2023-02-22T10:24:45;12.80;;;7.20;;
19543;SDS011;9917;51.256;7.152;2023-02-22T10:27:19;11.93;;;5.32;;
19543;SDS011;9917;51.256;7.152;2023-02-22T10:29:47;7.75;;;4.47;;
19543;SDS011;9917;51.256;7.152;2023-02-22T10:32:16;10.07;;;5.00;;
19543;SDS011;9917;51.256;7.152;2023-02-22T10:34:46;8.27;;;4.18;;
19543;SDS011;9917;51.256;7.152;2023-02-22T10:37:20;7.40;;;3.97;;
19543;SDS011;9917;51.256;7.152;2023-02-22T10:39:49;9.77;;;4.30;;
19543;SDS011;9917;51.256;7.152;2023-02-22T10:42:20;8.40;;;4.05;;
19543;SDS011;9917;51.256;7.152;2023-02-22T10:44:49;6.57;;;3.45;;
19543;SDS011;9917;51.256;7.152;2023-02-22T10:47:17;9.48;;;4.18;;
19543;SDS011;9917;51.256;7.152;2023-02-22T10:49:45;10.38;;;3.88;;
19543;SDS011;9917;51.256;7.152;2023-02-22T10:52:27;7.78;;;3.60;;
19543;SDS011;9917;51.256;7.152;2023-02-22T10:55:01;7.78;;;4.15;;
19543;SDS011;9917;51.256;7.152;2023-02-22T10:57:28;7.53;;;3.88;;
19543;SDS011;9917;51.256;7.152;2023-02-22T10:59:55;8.57;;;4.15;;
19543;SDS011;9917;51.256;7.152;2023-02-22T11:02:23;7.85;;;4.32;;
19543;SDS011;9917;51.256;7.152;2023-02-22T11:04:54;7.68;;;4.32;;
19543;SDS011;9917;51.256;7.152;2023-02-22T11:07:23;6.72;;;3.75;;
19543;SDS011;9917;51.256;7.152;2023-02-22T11:09:53;10.27;;;4.22;;
19543;SDS011;9917;51.256;7.152;2023-02-22T11:12:24;7.72;;;4.20;;
19543;SDS011;9917;51.256;7.152;2023-02-22T11:14:52;8.88;;;3.58;;
19543;SDS011;9917;51.256;7.152;2023-02-22T11:17:22;7.10;;;3.72;;
19543;SDS011;9917;51.256;7.152;2023-02-22T11:19:52;8.60;;;4.07;;
19543;SDS011;9917;51.256;7.152;2023-02-22T11:22:20;7.60;;;4.43;;
19543;SDS011;9917;51.256;7.152;2023-02-22T11:24:50;7.97;;;3.97;;
19543;SDS011;9917;51.256;7.152;2023-02-22T11:27:21;5.20;;;3.33;;
19543;SDS011;9917;51.256;7.152;2023-02-22T11:29:50;5.93;;;4.00;;
19543;SDS011;9917;51.256;7.152;2023-02-22T11:32:18;6.68;;;3.97;;
19543;SDS011;9917;51.256;7.152;2023-02-22T11:34:44;10.40;;;4.50;;
19543;SDS011;9917;51.256;7.152;2023-02-22T11:37:15;9.35;;;4.30;;
19543;SDS011;9917;51.256;7.152;2023-02-22T11:40:02;8.25;;;4.47;;
19543;SDS011;9917;51.256;7.152;2023-02-22T11:42:38;6.05;;;3.65;;
19543;SDS011;9917;51.256;7.152;2023-02-22T11:45:09;6.53;;;3.35;;
19543;SDS011;9917;51.256;7.152;2023-02-22T11:47:45;8.80;;;3.45;;
19543;SDS011;9917;51.256;7.152;2023-02-22T11:50:16;7.65;;;3.50;;
19543;SDS011;9917;51.256;7.152;2023-02-22T11:52:50;7.45;;;3.80;;
19543;SDS011;9917;51.256;7.152;2023-02-22T11:55:29;5.45;;;3.20;;
19543;SDS011;9917;51.256;7.152;2023-02-22T11:58:03;6.40;;;3.20;;
19543;SDS011;9917;51.256;7.152;2023-02-22T12:00:47;6.70;;;3.63;;
19543;SDS011;9917;51.256;7.152;2023-02-22T12:06:22;7.97;;;3.80;;
19543;SDS011;9917;51.256;7.152;2023-02-22T12:08:58;8.10;;;3.35;;
19543;SDS011;9917;51.256;7.152;2023-02-22T12:11:37;8.55;;;3.55;;
19543;SDS011;9917;51.256;7.152;2023-02-22T12:14:09;9.02;;;3.30;;
19543;SDS011;9917;51.256;7.152;2023-02-22T12:16:46;6.53;;;4.10;;
19543;SDS011;9917;51.256;7.152;2023-02-22T12:19:40;10.95;;;3.83;;
19543;SDS011;9917;51.256;7.152;2023-02-22T12:22:09;6.60;;;3.35;;
19543;SDS011;9917;51.256;7.152;2023-02-22T12:24:41;6.32;;;3.67;;
19543;SDS011;9917;51.256;7.152;2023-02-22T12:27:13;6.20;;;3.38;;
19543;SDS011;9917;51.256;7.152;2023-02-22T12:29:43;6.53;;;3.20;;
19543;SDS011;9917;51.256;7.152;2023-02-22T12:32:13;7.47;;;3.63;;
19543;SDS011;9917;51.256;7.152;2023-02-22T12:34:52;7.55;;;4.05;;
19543;SDS011;9917;51.256;7.152;2023-02-22T12:37:26;8.43;;;4.05;;
19543;SDS011;9917;51.256;7.152;2023-02-22T12:39:58;6.95;;;3.10;;
19543;SDS011;9917;51.256;7.152;2023-02-22T12:42:40;8.85;;;3.97;;
19543;SDS011;9917;51.256;7.152;2023-02-22T12:45:16;7.50;;;3.97;;
19543;SDS011;9917;51.256;7.152;2023-02-22T12:47:51;9.65;;;4.22;;
19543;SDS011;9917;51.256;7.152;2023-02-22T12:50:25;6.47;;;3.80;;
19543;SDS011;9917;51.256;7.152;2023-02-22T12:52:57;9.40;;;4.03;;
19543;SDS011;9917;51.256;7.152;2023-02-22T12:55:27;6.82;;;3.53;;
19543;SDS011;9917;51.256;7.152;2023-02-22T12:58:06;7.65;;;3.65;;
19543;SDS011;9917;51.256;7.152;2023-02-22T13:00:40;6.53;;;3.83;;
19543;SDS011;9917;51.256;7.152;2023-02-22T13:06:13;8.02;;;3.95;;
19543;SDS011;9917;51.256;7.152;2023-02-22T13:08:51;6.90;;;3.83;;
19543;SDS011;9917;51.256;7.152;2023-02-22T13:11:27;7.82;;;3.90;;
19543;SDS011;9917;51.256;7.152;2023-02-22T13:14:06;7.90;;;4.18;;
19543;SDS011;9917;51.256;7.152;2023-02-22T13:16:42;7.30;;;3.80;;
19543;SDS011;9917;51.256;7.152;2023-02-22T13:19:15;7.05;;;3.80;;
19543;SDS011;9917;51.256;7.152;2023-02-22T13:21:52;7.05;;;3.72;;
19543;SDS011;9917;51.256;7.152;2023-02-22T13:24:24;7.32;;;4.07;;
19543;SDS011;9917;51.256;7.152;2023-02-22T13:26:55;9.98;;;4.22;;
19543;SDS011;9917;51.256;7.152;2023-02-22T13:29:26;5.55;;;3.25;;
19543;SDS011;9917;51.256;7.152;2023-02-22T13:32:03;6.53;;;3.47;;
19543;SDS011;9917;51.256;7.152;2023-02-22T13:34:42;6.53;;;3.67;;
19543;SDS011;9917;51.256;7.152;2023-02-22T13:37:35;8.43;;;4.20;;
19543;SDS011;9917;51.256;7.152;2023-02-22T13:40:34;11.48;;;4.10;;
19543;SDS011;9917;51.256;7.152;2023-02-22T13:43:33;7.18;;;3.88;;
19543;SDS011;9917;51.256;7.152;2023-02-22T13:49:37;8.80;;;4.20;;
19543;SDS011;9917;51.256;7.152;2023-02-22T13:52:28;7.00;;;4.05;;
19543;SDS011;9917;51.256;7.152;2023-02-22T13:54:58;7.30;;;4.43;;
19543;SDS011;9917;51.256;7.152;2023-02-22T13:57:27;6.25;;;4.03;;
19543;SDS011;9917;51.256;7.152;2023-02-22T14:02:57;7.32;;;3.78;;
19543;SDS011;9917;51.256;7.152;2023-02-22T14:05:45;8.10;;;3.70;;
19543;SDS011;9917;51.256;7.152;2023-02-22T14:14:14;9.35;;;3.60;;
19543;SDS011;9917;51.256;7.152;2023-02-22T14:16:41;9.88;;;3.88;;
19543;SDS011;9917;51.256;7.152;2023-02-22T14:19:13;7.60;;;4.05;;
19543;SDS011;9917;51.256;7.152;2023-02-22T14:21:54;7.50;;;3.90;;
19543;SDS011;9917;51.256;7.152;2023-02-22T14:24:22;8.45;;;3.58;;
19543;SDS011;9917;51.256;7.152;2023-02-22T14:26:54;8.75;;;4.25;;
19543;SDS011;9917;51.256;7.152;2023-02-22T14:29:24;7.72;;;4.22;;
19543;SDS011;9917;51.256;7.152;2023-02-22T14:32:02;11.98;;;5.10;;
19543;SDS011;9917;51.256;7.152;2023-02-22T14:34:43;10.65;;;3.97;;
19543;SDS011;9917;51.256;7.152;2023-02-22T14:37:16;9.60;;;4.22;;
19543;SDS011;9917;51.256;7.152;2023-02-22T14:39:45;10.13;;;4.18;;
19543;SDS011;9917;51.256;7.152;2023-02-22T14:42:13;7.97;;;4.32;;
19543;SDS011;9917;51.256;7.152;2023-02-22T14:44:47;13.02;;;4.45;;
19543;SDS011;9917;51.256;7.152;2023-02-22T14:47:21;10.88;;;4.25;;
19543;SDS011;9917;51.256;7.152;2023-02-22T14:49:52;10.15;;;4.68;;
19543;SDS011;9917;51.256;7.152;2023-02-22T14:52:25;10.23;;;4.68;;
19543;SDS011;9917;51.256;7.152;2023-02-22T14:54:59;9.98;;;4.97;;
19543;SDS011;9917;51.256;7.152;2023-02-22T14:57:32;9.68;;;4.72;;
19543;SDS011;9917;51.256;7.152;2023-02-22T15:00:05;9.77;;;4.75;;
19543;SDS011;9917;51.256;7.152;2023-02-22T15:02:39;10.13;;;5.18;;
19543;SDS011;9917;51.256;7.152;2023-02-22T15:05:11;9.50;;;5.00;;
19543;SDS011;9917;51.256;7.152;2023-02-22T15:07:38;9.63;;;4.47;;
19543;SDS011;9917;51.256;7.152;2023-02-22T15:10:05;8.75;;;5.10;;
19543;SDS011;9917;51.256;7.152;2023-02-22T15:12:48;9.52;;;4.93;;
19543;SDS011;9917;51.256;7.152;2023-02-22T15:15:16;12.18;;;4.88;;
19543;SDS011;9917;51.256;7.152;2023-02-22T15:17:43;11.70;;;5.03;;
19543;SDS011;9917;51.256;7.152;2023-02-22T15:20:21;11.32;;;5.30;;
19543;SDS011;9917;51.256;7.152;2023-02-22T15:22:52;14.30;;;6.03;;